Weather at Chris Hadfield Airport

Public forecast

Using degrees Celsius for public forecast. Weather courtesy of forecast.io.

Current aviation weather report (METAR) for Chris Hadfield Airport

Retrieved 2021/01/24 14:00 UTC (23 minutes ago):

CYZR 241400Z AUTO 16007KT 9SM BKN060 OVC080 M05/M08 A3027 RMK SLP260

Aviation forecast (TAF) for Chris Hadfield Airport

Retrieved 2021/01/24 14:39 UTC (0 seconds ago):

TAF TAF CYZR 241338Z 2414/2502 15007KT P6SM SCT020 BKN090 TEMPO 2414/2417 P6SM -SN BKN020 FM241700 17010KT 3SM -SN BKN015 OVC060 TEMPO 2417/2420 P6SM -SN SCT015 OVC060 PROB30 2417/2420 2SM -SN FM242000 17010KT 6SM -SN BKN015 OVC060 RMK FCST BASED ON AUTO OBS NXT FCST BY 242000Z